»·PEaware :: FDX3103 KSEA-KOAK

FDX3103 :: KSEA-KOAK

FLIGHT INFORMATION

Flight Status: Arrived
Operator:
Federal Express
More flights by this operator :: More flights under this callsign
Pilot: Dakota F. (17727)
Aircraft: Unknown
(B77L)
More flights by this aircraft type
Origin: KSEA Seattle-Tacoma Intl
United States
Destination: KOAK Metro Oakland Intl
United States
More flights between these airports :: More routes between these airports
Route: +HAROB6 HISKU Q5 HUPTU SPAMY WNDSR2
File this flight plan on PilotEdge
Remarks: PBN / A1B1C1D1L1O1S2 DOF / 171230 REG / N715SB EET / KZOA0049 OPR / FDX PER / D RMK / TCAS
Altitude:
(Current/Filed)
35,000ft
Speed:
(Current/Filed)
476kts
Departed: 30-Dec-17 09:22 AM
Arrived: 30-Dec-17 10:57 AM
Distance/Time
Traveled:
584nm/1:35
Distance/Time
To Go:
Arrived

Flight Plot

Page will automatically refresh every two minutes.

Flight plan parsing failed; only flown route is shown


Map Options




Map Legend


Flown Route
Filed Route
Departure Airport
Arrival Airport
Navaid (VOR, NDB)
Fix

Horizontal Profiles

Position Reports

Time Latitude Longitude Heading Altitude Ground
Speed
30-Dec-17 08:47 47.456077 -122.303855 180 446ft 0kts
30-Dec-17 08:49 47.456077 -122.303855 180 446ft 0kts
30-Dec-17 08:50 47.456077 -122.303855 180 446ft 0kts
30-Dec-17 08:51 47.456077 -122.303855 180 446ft 0kts
30-Dec-17 08:52 47.456077 -122.303855 180 446ft 0kts
30-Dec-17 08:53 47.456077 -122.303855 180 446ft 0kts
30-Dec-17 08:54 47.456077 -122.303855 180 446ft 0kts
30-Dec-17 08:55 47.456077 -122.303855 180 446ft 0kts
30-Dec-17 08:56 47.456077 -122.303855 180 446ft 0kts
30-Dec-17 08:57 47.456077 -122.303855 180 446ft 0kts
30-Dec-17 08:58 47.456077 -122.303855 180 446ft 0kts
30-Dec-17 08:59 47.456077 -122.303855 180 446ft 0kts
30-Dec-17 09:00 47.456077 -122.303855 180 446ft 0kts
30-Dec-17 09:01 47.456077 -122.303855 180 446ft 0kts
30-Dec-17 09:02 47.456077 -122.303855 180 446ft 0kts
30-Dec-17 09:03 47.456077 -122.303855 180 446ft 0kts
30-Dec-17 09:04 47.456077 -122.303855 180 446ft 0kts
30-Dec-17 09:05 47.456077 -122.303855 180 446ft 0kts
30-Dec-17 09:06 47.456077 -122.303855 180 446ft 0kts
30-Dec-17 09:07 47.456077 -122.303855 180 446ft 0kts
30-Dec-17 09:08 47.456077 -122.303855 180 446ft 0kts
30-Dec-17 09:09 47.456077 -122.303855 180 446ft 0kts
30-Dec-17 09:10 47.456077 -122.303855 180 446ft 0kts
30-Dec-17 09:11 47.456077 -122.303855 180 446ft 0kts
30-Dec-17 09:12 47.456077 -122.303855 180 446ft 0kts
30-Dec-17 09:13 47.456477 -122.303734 219 446ft 2kts
30-Dec-17 09:14 47.456618 -122.303282 269 446ft 0kts
30-Dec-17 09:15 47.456618 -122.303282 269 446ft 0kts
30-Dec-17 09:16 47.456618 -122.303282 269 446ft 0kts
30-Dec-17 09:17 47.456838 -122.303883 287 446ft 0kts
30-Dec-17 09:18 47.456838 -122.303885 287 446ft 0kts
30-Dec-17 09:19 47.456839 -122.303888 287 446ft 0kts
30-Dec-17 09:20 47.457075 -122.305335 268 446ft 0kts
30-Dec-17 09:21 47.459351 -122.306142 0 446ft 25kts
30-Dec-17 09:22 47.462486 -122.306160 359 446ft 7kts
30-Dec-17 09:23 47.463451 -122.306525 271 446ft 0kts
30-Dec-17 09:24 47.463451 -122.306528 271 446ft 0kts
30-Dec-17 09:25 47.463451 -122.306530 271 446ft 0kts
30-Dec-17 09:26 47.463451 -122.306533 271 446ft 0kts
30-Dec-17 09:27 47.463259 -122.307666 206 446ft 8kts
30-Dec-17 09:28 47.439600 -122.307169 180 1374ft 169kts
30-Dec-17 09:29 47.387247 -122.308621 185 3445ft 264kts
30-Dec-17 09:30 47.330097 -122.344980 248 6784ft 252kts
30-Dec-17 09:31 47.308130 -122.441148 270 10387ft 256kts
30-Dec-17 09:32 47.309364 -122.534429 277 12365ft 302kts
30-Dec-17 09:33 47.313229 -122.668789 277 14975ft 338kts
30-Dec-17 09:34 47.304169 -122.807230 265 17647ft 341kts
30-Dec-17 09:35 47.270238 -122.940980 262 20871ft 360kts
30-Dec-17 09:36 47.212714 -123.071696 240 23195ft 430kts
30-Dec-17 09:37 47.115624 -123.179204 227 23222ft 450kts
30-Dec-17 09:38 46.979445 -123.211941 188 25596ft 526kts
30-Dec-17 09:39 46.833134 -123.192384 183 28478ft 532kts
30-Dec-17 09:40 46.685181 -123.175276 182 30964ft 532kts
30-Dec-17 09:41 46.538489 -123.159072 181 33419ft 524kts
30-Dec-17 09:42 46.405711 -123.144577 180 35190ft 521kts
30-Dec-17 09:45 46.131862 -123.114906 180 35312ft 518kts
30-Dec-17 09:46 45.987587 -123.099408 180 35317ft 518kts
30-Dec-17 09:47 45.844697 -123.084139 180 35318ft 518kts
30-Dec-17 09:48 45.700982 -123.068861 180 35318ft 517kts
30-Dec-17 09:49 45.557007 -123.053634 180 35318ft 517kts
30-Dec-17 09:50 45.413563 -123.038540 180 35318ft 517kts
30-Dec-17 09:51 45.294048 -123.026023 180 35318ft 517kts
30-Dec-17 09:52 45.150056 -123.011012 180 35318ft 517kts
30-Dec-17 09:53 45.006432 -122.996115 180 35318ft 517kts
30-Dec-17 09:54 44.862454 -122.981255 180 35318ft 517kts
30-Dec-17 09:55 44.719311 -122.966507 180 35318ft 517kts
30-Dec-17 09:56 44.575692 -122.951866 180 35318ft 517kts
30-Dec-17 09:57 44.431873 -122.940381 184 35318ft 515kts
30-Dec-17 09:58 44.301956 -122.918760 189 38029ft 389kts
30-Dec-17 09:59 44.178330 -122.932340 186 35896ft 490kts
30-Dec-17 10:00 44.036799 -122.930275 183 35319ft 516kts
30-Dec-17 10:01 43.893435 -122.925631 183 35318ft 515kts
30-Dec-17 10:02 43.749797 -122.921262 183 35318ft 515kts
30-Dec-17 10:04 43.463775 -122.912673 183 35318ft 515kts
30-Dec-17 10:05 43.323163 -122.908480 183 35318ft 514kts
30-Dec-17 10:06 43.180035 -122.904236 183 35318ft 514kts
30-Dec-17 10:07 43.037205 -122.900018 183 35318ft 514kts
30-Dec-17 10:08 42.893660 -122.895798 183 35318ft 514kts
30-Dec-17 10:09 42.750879 -122.891608 183 35318ft 514kts
30-Dec-17 10:10 42.607452 -122.887437 183 35318ft 514kts
30-Dec-17 10:11 42.464900 -122.883466 183 35320ft 514kts
30-Dec-17 10:12 42.321726 -122.879225 183 35318ft 514kts
30-Dec-17 10:13 42.178972 -122.875146 183 35318ft 514kts
30-Dec-17 10:14 42.035813 -122.871055 183 35318ft 514kts
30-Dec-17 10:15 41.892429 -122.866990 183 35318ft 514kts
30-Dec-17 10:16 41.749443 -122.862957 183 35318ft 514kts
30-Dec-17 10:17 41.606268 -122.851977 180 35318ft 517kts
30-Dec-17 10:18 41.462524 -122.835767 180 35318ft 517kts
30-Dec-17 10:19 41.319296 -122.819781 180 35318ft 517kts
30-Dec-17 10:20 41.175879 -122.803858 180 35318ft 517kts
30-Dec-17 10:21 41.032479 -122.788009 180 35318ft 517kts
30-Dec-17 10:22 40.889193 -122.772240 180 35318ft 517kts
30-Dec-17 10:23 40.745715 -122.756519 180 35318ft 517kts
30-Dec-17 10:24 40.636198 -122.744565 180 35318ft 517kts
30-Dec-17 10:25 40.493876 -122.729088 180 35318ft 517kts
30-Dec-17 10:26 40.349637 -122.713470 180 35318ft 517kts
30-Dec-17 10:27 40.206519 -122.698038 180 35318ft 517kts
30-Dec-17 10:28 40.063604 -122.682693 180 35318ft 517kts
30-Dec-17 10:29 39.921208 -122.667461 180 34519ft 508kts
30-Dec-17 10:30 39.783596 -122.652780 182 31981ft 490kts
30-Dec-17 10:31 39.649729 -122.638590 183 30386ft 476kts
30-Dec-17 10:32 39.519108 -122.624769 185 28606ft 467kts
30-Dec-17 10:33 39.390829 -122.611084 187 26853ft 457kts
30-Dec-17 10:34 39.266919 -122.598056 183 25235ft 430kts
30-Dec-17 10:35 39.151458 -122.584468 179 23505ft 414kts
30-Dec-17 10:36 39.037087 -122.567758 178 21752ft 411kts
30-Dec-17 10:37 38.925398 -122.539840 174 20024ft 404kts
30-Dec-17 10:38 38.816718 -122.512320 174 18343ft 393kts
30-Dec-17 10:39 38.710560 -122.485904 174 16448ft 369kts
30-Dec-17 10:40 38.623231 -122.468487 179 15758ft 356kts
30-Dec-17 10:41 38.526689 -122.454944 178 13434ft 354kts
30-Dec-17 10:42 38.432835 -122.440745 177 12083ft 331kts
30-Dec-17 10:43 38.342918 -122.427124 177 10969ft 315kts
30-Dec-17 10:44 38.262743 -122.414999 177 10343ft 271kts
30-Dec-17 10:45 38.187160 -122.403413 177 9389ft 278kts
30-Dec-17 10:46 38.111298 -122.391806 176 9010ft 279kts
30-Dec-17 10:47 38.054994 -122.383208 177 9000ft 277kts
30-Dec-17 10:48 37.984230 -122.343263 148 8980ft 286kts
30-Dec-17 10:49 37.921335 -122.283519 145 7922ft 277kts
30-Dec-17 10:50 37.860646 -122.225779 145 6418ft 258kts
30-Dec-17 10:51 37.800224 -122.168450 145 5268ft 272kts
30-Dec-17 10:52 37.761111 -122.091877 108 5002ft 274kts
30-Dec-17 10:53 37.742325 -121.999896 104 4991ft 269kts
30-Dec-17 10:54 37.715140 -121.922819 144 3834ft 227kts
30-Dec-17 10:55 37.660371 -121.898303 199 3402ft 217kts
30-Dec-17 10:56 37.605690 -121.925408 203 3412ft 217kts
30-Dec-17 10:57 37.567794 -121.970215 275 3442ft 198kts
30-Dec-17 10:58 37.583043 -122.032257 294 3269ft 181kts
30-Dec-17 10:59 37.613431 -122.082404 306 2648ft 183kts
30-Dec-17 11:00 37.644776 -122.129294 310 1757ft 167kts
30-Dec-17 11:01 37.672701 -122.171110 311 901ft 145kts
30-Dec-17 11:02 37.697945 -122.208946 310 146ft 140kts
30-Dec-17 11:03 37.710629 -122.227957 309 19ft 0kts
30-Dec-17 11:04 37.713546 -122.232320 316 19ft 15kts
30-Dec-17 11:05 37.714563 -122.232878 352 19ft 5kts
30-Dec-17 11:06 37.714801 -122.232908 356 19ft 0kts
30-Dec-17 11:07 37.715903 -122.232674 69 19ft 7kts
30-Dec-17 11:08 37.711545 -122.225718 129 19ft 21kts
30-Dec-17 11:09 37.711514 -122.223960 45 19ft 0kts
30-Dec-17 11:10 37.715970 -122.218381 44 19ft 22kts
30-Dec-17 11:11 37.717999 -122.216154 341 19ft 3kts
30-Dec-17 11:12 37.719265 -122.217168 298 19ft 9kts
30-Dec-17 11:13 37.719342 -122.217319 304 19ft 0kts
30-Dec-17 11:14 37.719342 -122.217319 304 19ft 0kts

Navigation Log

Ident Type
Flight plan parsing failed, navigation log unavailable